sensor_id;sensor_type;location;lat;lon;timestamp;P1;durP1;ratioP1;P2;durP2;ratioP2
9208;SDS011;4639;48.862;9.188;2023-12-04T00:00:07;109.40;;;101.67;;
9208;SDS011;4639;48.862;9.188;2023-12-04T00:02:33;103.57;;;96.03;;
9208;SDS011;4639;48.862;9.188;2023-12-04T00:04:59;116.13;;;108.00;;
9208;SDS011;4639;48.862;9.188;2023-12-04T00:07:24;109.47;;;101.10;;
9208;SDS011;4639;48.862;9.188;2023-12-04T00:09:50;118.40;;;109.70;;
9208;SDS011;4639;48.862;9.188;2023-12-04T00:12:15;122.97;;;113.93;;
9208;SDS011;4639;48.862;9.188;2023-12-04T00:14:41;114.87;;;106.50;;
9208;SDS011;4639;48.862;9.188;2023-12-04T00:17:07;138.83;;;128.80;;
9208;SDS011;4639;48.862;9.188;2023-12-04T00:19:32;143.53;;;133.20;;
9208;SDS011;4639;48.862;9.188;2023-12-04T00:21:58;158.23;;;147.00;;
9208;SDS011;4639;48.862;9.188;2023-12-04T00:24:23;155.93;;;145.13;;
9208;SDS011;4639;48.862;9.188;2023-12-04T00:26:49;178.77;;;166.27;;
9208;SDS011;4639;48.862;9.188;2023-12-04T00:29:14;134.77;;;124.67;;
9208;SDS011;4639;48.862;9.188;2023-12-04T00:31:40;141.23;;;130.87;;
9208;SDS011;4639;48.862;9.188;2023-12-04T00:34:06;125.63;;;116.47;;
9208;SDS011;4639;48.862;9.188;2023-12-04T00:36:31;116.67;;;108.10;;
9208;SDS011;4639;48.862;9.188;2023-12-04T00:38:57;119.17;;;110.30;;
9208;SDS011;4639;48.862;9.188;2023-12-04T00:41:22;107.87;;;99.87;;
9208;SDS011;4639;48.862;9.188;2023-12-04T00:43:48;131.13;;;121.57;;
9208;SDS011;4639;48.862;9.188;2023-12-04T00:46:14;144.17;;;133.63;;
9208;SDS011;4639;48.862;9.188;2023-12-04T00:48:39;118.10;;;109.27;;
9208;SDS011;4639;48.862;9.188;2023-12-04T00:51:05;116.67;;;107.70;;
9208;SDS011;4639;48.862;9.188;2023-12-04T00:53:31;94.30;;;87.03;;
9208;SDS011;4639;48.862;9.188;2023-12-04T00:55:57;100.63;;;92.90;;
9208;SDS011;4639;48.862;9.188;2023-12-04T00:58:22;97.13;;;89.53;;
9208;SDS011;4639;48.862;9.188;2023-12-04T01:00:48;107.83;;;99.27;;
9208;SDS011;4639;48.862;9.188;2023-12-04T01:03:15;119.63;;;110.57;;
9208;SDS011;4639;48.862;9.188;2023-12-04T01:05:41;118.40;;;109.53;;
9208;SDS011;4639;48.862;9.188;2023-12-04T01:08:07;96.53;;;88.90;;
9208;SDS011;4639;48.862;9.188;2023-12-04T01:10:32;86.67;;;79.53;;
9208;SDS011;4639;48.862;9.188;2023-12-04T01:12:58;93.10;;;85.83;;
9208;SDS011;4639;48.862;9.188;2023-12-04T01:15:24;99.93;;;91.97;;
9208;SDS011;4639;48.862;9.188;2023-12-04T01:17:49;100.67;;;92.77;;
9208;SDS011;4639;48.862;9.188;2023-12-04T01:20:15;92.20;;;84.90;;
9208;SDS011;4639;48.862;9.188;2023-12-04T01:22:41;190.07;;;176.07;;
9208;SDS011;4639;48.862;9.188;2023-12-04T01:25:06;106.73;;;98.57;;
9208;SDS011;4639;48.862;9.188;2023-12-04T01:27:32;99.77;;;92.00;;
9208;SDS011;4639;48.862;9.188;2023-12-04T01:30:00;94.97;;;87.67;;
9208;SDS011;4639;48.862;9.188;2023-12-04T01:32:26;108.83;;;100.67;;
9208;SDS011;4639;48.862;9.188;2023-12-04T01:34:52;101.60;;;93.93;;
9208;SDS011;4639;48.862;9.188;2023-12-04T01:37:17;88.63;;;81.57;;
9208;SDS011;4639;48.862;9.188;2023-12-04T01:39:43;90.43;;;83.37;;
9208;SDS011;4639;48.862;9.188;2023-12-04T01:42:09;102.47;;;94.60;;
9208;SDS011;4639;48.862;9.188;2023-12-04T01:44:35;106.80;;;98.80;;
9208;SDS011;4639;48.862;9.188;2023-12-04T01:47:02;115.87;;;107.33;;
9208;SDS011;4639;48.862;9.188;2023-12-04T01:49:28;126.63;;;117.20;;
9208;SDS011;4639;48.862;9.188;2023-12-04T01:51:54;110.33;;;102.07;;
9208;SDS011;4639;48.862;9.188;2023-12-04T01:54:20;136.37;;;126.37;;
9208;SDS011;4639;48.862;9.188;2023-12-04T01:56:47;128.33;;;119.00;;
9208;SDS011;4639;48.862;9.188;2023-12-04T01:59:12;143.83;;;133.33;;
9208;SDS011;4639;48.862;9.188;2023-12-04T02:01:38;144.43;;;133.63;;
9208;SDS011;4639;48.862;9.188;2023-12-04T02:04:05;130.03;;;120.63;;
9208;SDS011;4639;48.862;9.188;2023-12-04T02:06:31;117.53;;;108.60;;
9208;SDS011;4639;48.862;9.188;2023-12-04T02:08:56;148.07;;;137.53;;
9208;SDS011;4639;48.862;9.188;2023-12-04T02:11:22;129.90;;;120.30;;
9208;SDS011;4639;48.862;9.188;2023-12-04T02:13:48;146.70;;;135.77;;
9208;SDS011;4639;48.862;9.188;2023-12-04T02:16:14;137.93;;;127.73;;
9208;SDS011;4639;48.862;9.188;2023-12-04T02:18:41;133.07;;;123.43;;
9208;SDS011;4639;48.862;9.188;2023-12-04T02:21:08;131.90;;;122.37;;
9208;SDS011;4639;48.862;9.188;2023-12-04T02:23:34;137.10;;;127.03;;
9208;SDS011;4639;48.862;9.188;2023-12-04T02:26:01;109.47;;;100.97;;
9208;SDS011;4639;48.862;9.188;2023-12-04T02:28:33;127.90;;;118.80;;
9208;SDS011;4639;48.862;9.188;2023-12-04T02:31:01;129.40;;;120.17;;
9208;SDS011;4639;48.862;9.188;2023-12-04T02:33:29;146.17;;;135.87;;
9208;SDS011;4639;48.862;9.188;2023-12-04T02:35:55;165.60;;;153.73;;
9208;SDS011;4639;48.862;9.188;2023-12-04T02:38:23;130.77;;;121.37;;
9208;SDS011;4639;48.862;9.188;2023-12-04T02:40:49;118.23;;;109.60;;
9208;SDS011;4639;48.862;9.188;2023-12-04T02:43:15;106.73;;;98.73;;
9208;SDS011;4639;48.862;9.188;2023-12-04T02:45:41;86.83;;;79.80;;
9208;SDS011;4639;48.862;9.188;2023-12-04T02:48:06;115.77;;;107.10;;
9208;SDS011;4639;48.862;9.188;2023-12-04T02:50:32;107.03;;;99.03;;
9208;SDS011;4639;48.862;9.188;2023-12-04T02:52:58;117.63;;;109.13;;
9208;SDS011;4639;48.862;9.188;2023-12-04T02:55:23;135.83;;;126.03;;
9208;SDS011;4639;48.862;9.188;2023-12-04T02:57:49;137.13;;;127.47;;
9208;SDS011;4639;48.862;9.188;2023-12-04T03:00:15;125.77;;;116.67;;
9208;SDS011;4639;48.862;9.188;2023-12-04T03:02:40;132.97;;;123.07;;
9208;SDS011;4639;48.862;9.188;2023-12-04T03:05:06;143.13;;;132.90;;
9208;SDS011;4639;48.862;9.188;2023-12-04T03:07:31;168.10;;;156.10;;
9208;SDS011;4639;48.862;9.188;2023-12-04T03:09:57;143.30;;;132.43;;
9208;SDS011;4639;48.862;9.188;2023-12-04T03:12:23;127.77;;;118.40;;
9208;SDS011;4639;48.862;9.188;2023-12-04T03:14:48;137.30;;;127.30;;
9208;SDS011;4639;48.862;9.188;2023-12-04T03:17:14;136.60;;;126.70;;
9208;SDS011;4639;48.862;9.188;2023-12-04T03:19:39;144.03;;;133.60;;
9208;SDS011;4639;48.862;9.188;2023-12-04T03:22:05;140.80;;;130.90;;
9208;SDS011;4639;48.862;9.188;2023-12-04T03:24:31;143.63;;;133.27;;
9208;SDS011;4639;48.862;9.188;2023-12-04T03:26:56;137.97;;;128.13;;
9208;SDS011;4639;48.862;9.188;2023-12-04T03:29:22;135.77;;;126.13;;
9208;SDS011;4639;48.862;9.188;2023-12-04T03:31:47;144.07;;;133.80;;
9208;SDS011;4639;48.862;9.188;2023-12-04T03:34:13;144.80;;;134.10;;
9208;SDS011;4639;48.862;9.188;2023-12-04T03:36:38;146.30;;;135.73;;
9208;SDS011;4639;48.862;9.188;2023-12-04T03:39:04;145.57;;;134.83;;
9208;SDS011;4639;48.862;9.188;2023-12-04T03:41:29;131.37;;;121.93;;
9208;SDS011;4639;48.862;9.188;2023-12-04T03:43:55;125.77;;;116.63;;
9208;SDS011;4639;48.862;9.188;2023-12-04T03:46:20;134.00;;;123.83;;
9208;SDS011;4639;48.862;9.188;2023-12-04T03:48:46;124.87;;;115.37;;
9208;SDS011;4639;48.862;9.188;2023-12-04T03:51:11;145.70;;;134.93;;
9208;SDS011;4639;48.862;9.188;2023-12-04T03:53:37;152.63;;;141.63;;
9208;SDS011;4639;48.862;9.188;2023-12-04T03:56:03;137.17;;;126.87;;
9208;SDS011;4639;48.862;9.188;2023-12-04T03:58:29;138.13;;;128.13;;
9208;SDS011;4639;48.862;9.188;2023-12-04T04:00:54;122.97;;;113.97;;
9208;SDS011;4639;48.862;9.188;2023-12-04T04:03:20;94.40;;;87.43;;
9208;SDS011;4639;48.862;9.188;2023-12-04T04:05:45;109.10;;;101.10;;
9208;SDS011;4639;48.862;9.188;2023-12-04T04:08:11;138.60;;;128.60;;
9208;SDS011;4639;48.862;9.188;2023-12-04T04:10:36;90.57;;;83.53;;
9208;SDS011;4639;48.862;9.188;2023-12-04T04:13:02;100.70;;;93.27;;
9208;SDS011;4639;48.862;9.188;2023-12-04T04:15:27;101.70;;;94.33;;
9208;SDS011;4639;48.862;9.188;2023-12-04T04:17:53;102.57;;;95.20;;
9208;SDS011;4639;48.862;9.188;2023-12-04T04:20:19;110.17;;;102.17;;
9208;SDS011;4639;48.862;9.188;2023-12-04T04:22:47;135.30;;;125.67;;
9208;SDS011;4639;48.862;9.188;2023-12-04T04:25:13;127.13;;;118.13;;
9208;SDS011;4639;48.862;9.188;2023-12-04T04:27:39;125.33;;;116.77;;
9208;SDS011;4639;48.862;9.188;2023-12-04T04:30:06;139.23;;;130.03;;
9208;SDS011;4639;48.862;9.188;2023-12-04T04:32:32;154.40;;;143.80;;
9208;SDS011;4639;48.862;9.188;2023-12-04T04:34:58;144.80;;;134.70;;
9208;SDS011;4639;48.862;9.188;2023-12-04T04:37:23;157.53;;;147.00;;
9208;SDS011;4639;48.862;9.188;2023-12-04T04:39:49;144.73;;;134.73;;
9208;SDS011;4639;48.862;9.188;2023-12-04T04:42:14;145.20;;;135.07;;
9208;SDS011;4639;48.862;9.188;2023-12-04T04:44:40;145.73;;;135.97;;
9208;SDS011;4639;48.862;9.188;2023-12-04T04:47:05;140.23;;;130.47;;
9208;SDS011;4639;48.862;9.188;2023-12-04T04:49:31;143.13;;;133.17;;
9208;SDS011;4639;48.862;9.188;2023-12-04T04:51:57;148.43;;;138.23;;
9208;SDS011;4639;48.862;9.188;2023-12-04T04:54:22;128.67;;;119.43;;
9208;SDS011;4639;48.862;9.188;2023-12-04T04:56:48;113.00;;;105.03;;
9208;SDS011;4639;48.862;9.188;2023-12-04T04:59:14;128.13;;;119.00;;
9208;SDS011;4639;48.862;9.188;2023-12-04T05:01:39;105.97;;;98.23;;
9208;SDS011;4639;48.862;9.188;2023-12-04T05:04:05;125.70;;;116.97;;
9208;SDS011;4639;48.862;9.188;2023-12-04T05:06:31;136.63;;;126.33;;
9208;SDS011;4639;48.862;9.188;2023-12-04T05:08:57;158.73;;;147.53;;
9208;SDS011;4639;48.862;9.188;2023-12-04T05:11:22;138.90;;;129.03;;
9208;SDS011;4639;48.862;9.188;2023-12-04T05:13:48;136.93;;;127.23;;
9208;SDS011;4639;48.862;9.188;2023-12-04T05:16:14;144.33;;;134.23;;
9208;SDS011;4639;48.862;9.188;2023-12-04T05:18:40;133.00;;;123.77;;
9208;SDS011;4639;48.862;9.188;2023-12-04T05:21:09;174.47;;;162.50;;
9208;SDS011;4639;48.862;9.188;2023-12-04T05:23:35;129.70;;;120.23;;
9208;SDS011;4639;48.862;9.188;2023-12-04T05:26:01;142.17;;;132.03;;
9208;SDS011;4639;48.862;9.188;2023-12-04T05:28:27;159.80;;;148.57;;
9208;SDS011;4639;48.862;9.188;2023-12-04T05:30:53;142.23;;;132.10;;
9208;SDS011;4639;48.862;9.188;2023-12-04T05:33:19;221.73;;;205.87;;
9208;SDS011;4639;48.862;9.188;2023-12-04T05:35:45;124.47;;;115.83;;
9208;SDS011;4639;48.862;9.188;2023-12-04T05:38:13;137.80;;;127.97;;
9208;SDS011;4639;48.862;9.188;2023-12-04T05:40:38;148.27;;;138.10;;
9208;SDS011;4639;48.862;9.188;2023-12-04T05:43:04;193.73;;;180.10;;
9208;SDS011;4639;48.862;9.188;2023-12-04T05:45:29;262.10;;;243.57;;
9208;SDS011;4639;48.862;9.188;2023-12-04T05:47:55;150.40;;;140.30;;
9208;SDS011;4639;48.862;9.188;2023-12-04T05:50:21;137.37;;;128.27;;
9208;SDS011;4639;48.862;9.188;2023-12-04T05:52:46;141.33;;;131.97;;
9208;SDS011;4639;48.862;9.188;2023-12-04T05:55:12;125.43;;;117.10;;
9208;SDS011;4639;48.862;9.188;2023-12-04T05:57:38;107.03;;;99.57;;
9208;SDS011;4639;48.862;9.188;2023-12-04T06:00:05;103.70;;;96.70;;
9208;SDS011;4639;48.862;9.188;2023-12-04T06:02:37;118.37;;;110.63;;
9208;SDS011;4639;48.862;9.188;2023-12-04T06:05:11;135.90;;;127.07;;
9208;SDS011;4639;48.862;9.188;2023-12-04T06:07:37;145.13;;;135.60;;
9208;SDS011;4639;48.862;9.188;2023-12-04T06:10:03;133.57;;;124.87;;
9208;SDS011;4639;48.862;9.188;2023-12-04T06:12:29;145.77;;;136.43;;
9208;SDS011;4639;48.862;9.188;2023-12-04T06:14:55;135.73;;;126.90;;
9208;SDS011;4639;48.862;9.188;2023-12-04T06:17:21;124.07;;;116.17;;
9208;SDS011;4639;48.862;9.188;2023-12-04T06:19:46;133.03;;;124.37;;
9208;SDS011;4639;48.862;9.188;2023-12-04T06:22:12;139.70;;;130.90;;
9208;SDS011;4639;48.862;9.188;2023-12-04T06:24:38;126.27;;;118.03;;
9208;SDS011;4639;48.862;9.188;2023-12-04T06:27:04;132.60;;;124.07;;
9208;SDS011;4639;48.862;9.188;2023-12-04T06:29:31;141.10;;;131.90;;
9208;SDS011;4639;48.862;9.188;2023-12-04T06:31:57;133.17;;;124.47;;
9208;SDS011;4639;48.862;9.188;2023-12-04T06:34:23;139.93;;;130.73;;
9208;SDS011;4639;48.862;9.188;2023-12-04T06:36:49;129.43;;;120.20;;
9208;SDS011;4639;48.862;9.188;2023-12-04T06:39:15;139.63;;;130.50;;
9208;SDS011;4639;48.862;9.188;2023-12-04T06:41:42;135.87;;;126.93;;
9208;SDS011;4639;48.862;9.188;2023-12-04T06:44:09;131.20;;;122.53;;
9208;SDS011;4639;48.862;9.188;2023-12-04T06:46:38;144.00;;;134.50;;
9208;SDS011;4639;48.862;9.188;2023-12-04T06:49:05;133.37;;;124.60;;
9208;SDS011;4639;48.862;9.188;2023-12-04T06:51:33;128.43;;;119.80;;
9208;SDS011;4639;48.862;9.188;2023-12-04T06:53:59;129.00;;;120.50;;
9208;SDS011;4639;48.862;9.188;2023-12-04T06:56:25;146.10;;;136.43;;
9208;SDS011;4639;48.862;9.188;2023-12-04T06:58:50;124.73;;;116.47;;
9208;SDS011;4639;48.862;9.188;2023-12-04T07:01:16;136.03;;;127.33;;
9208;SDS011;4639;48.862;9.188;2023-12-04T07:03:41;113.37;;;105.70;;
9208;SDS011;4639;48.862;9.188;2023-12-04T07:06:07;136.40;;;127.10;;
9208;SDS011;4639;48.862;9.188;2023-12-04T07:08:33;135.37;;;126.13;;
9208;SDS011;4639;48.862;9.188;2023-12-04T07:10:58;126.30;;;117.80;;
9208;SDS011;4639;48.862;9.188;2023-12-04T07:13:24;111.77;;;104.33;;
9208;SDS011;4639;48.862;9.188;2023-12-04T07:15:49;141.27;;;132.20;;
9208;SDS011;4639;48.862;9.188;2023-12-04T07:18:15;145.80;;;136.07;;
9208;SDS011;4639;48.862;9.188;2023-12-04T07:20:40;152.03;;;142.20;;
9208;SDS011;4639;48.862;9.188;2023-12-04T07:23:06;140.27;;;131.13;;
9208;SDS011;4639;48.862;9.188;2023-12-04T07:25:32;133.33;;;124.40;;
9208;SDS011;4639;48.862;9.188;2023-12-04T07:27:58;132.60;;;123.30;;
9208;SDS011;4639;48.862;9.188;2023-12-04T07:30:23;130.20;;;121.67;;
9208;SDS011;4639;48.862;9.188;2023-12-04T07:32:49;129.53;;;120.77;;
9208;SDS011;4639;48.862;9.188;2023-12-04T07:35:15;126.57;;;118.40;;
9208;SDS011;4639;48.862;9.188;2023-12-04T07:37:43;145.80;;;136.30;;
9208;SDS011;4639;48.862;9.188;2023-12-04T07:40:08;137.30;;;128.53;;
9208;SDS011;4639;48.862;9.188;2023-12-04T07:42:35;146.73;;;137.27;;
9208;SDS011;4639;48.862;9.188;2023-12-04T07:45:01;149.17;;;139.53;;
9208;SDS011;4639;48.862;9.188;2023-12-04T07:47:27;131.73;;;123.10;;
9208;SDS011;4639;48.862;9.188;2023-12-04T07:49:52;129.10;;;120.53;;
9208;SDS011;4639;48.862;9.188;2023-12-04T07:52:18;155.20;;;144.30;;
9208;SDS011;4639;48.862;9.188;2023-12-04T07:54:44;145.57;;;135.90;;
9208;SDS011;4639;48.862;9.188;2023-12-04T07:57:09;144.10;;;134.67;;
9208;SDS011;4639;48.862;9.188;2023-12-04T07:59:35;145.37;;;135.80;;
9208;SDS011;4639;48.862;9.188;2023-12-04T08:02:00;95.43;;;89.00;;
9208;SDS011;4639;48.862;9.188;2023-12-04T08:04:26;107.90;;;100.60;;
9208;SDS011;4639;48.862;9.188;2023-12-04T08:06:52;122.17;;;113.93;;
9208;SDS011;4639;48.862;9.188;2023-12-04T08:09:18;115.17;;;107.10;;
9208;SDS011;4639;48.862;9.188;2023-12-04T08:11:43;104.60;;;97.13;;
9208;SDS011;4639;48.862;9.188;2023-12-04T08:14:09;121.07;;;112.67;;
9208;SDS011;4639;48.862;9.188;2023-12-04T08:16:34;131.70;;;122.70;;
9208;SDS011;4639;48.862;9.188;2023-12-04T08:19:00;121.57;;;113.27;;
9208;SDS011;4639;48.862;9.188;2023-12-04T08:21:25;160.50;;;149.93;;
9208;SDS011;4639;48.862;9.188;2023-12-04T08:23:51;114.97;;;107.10;;
9208;SDS011;4639;48.862;9.188;2023-12-04T08:26:23;151.60;;;141.30;;
9208;SDS011;4639;48.862;9.188;2023-12-04T08:28:49;141.97;;;132.50;;
9208;SDS011;4639;48.862;9.188;2023-12-04T08:31:18;110.63;;;103.23;;
9208;SDS011;4639;48.862;9.188;2023-12-04T08:33:44;140.23;;;130.83;;
9208;SDS011;4639;48.862;9.188;2023-12-04T08:36:10;177.80;;;165.80;;
9208;SDS011;4639;48.862;9.188;2023-12-04T08:38:36;142.10;;;132.90;;
9208;SDS011;4639;48.862;9.188;2023-12-04T08:41:05;143.27;;;133.70;;
9208;SDS011;4639;48.862;9.188;2023-12-04T08:43:31;182.67;;;170.20;;
9208;SDS011;4639;48.862;9.188;2023-12-04T08:45:56;203.63;;;189.60;;
9208;SDS011;4639;48.862;9.188;2023-12-04T08:48:22;162.73;;;151.70;;
9208;SDS011;4639;48.862;9.188;2023-12-04T08:50:48;163.53;;;152.43;;
9208;SDS011;4639;48.862;9.188;2023-12-04T08:53:13;212.77;;;198.07;;
9208;SDS011;4639;48.862;9.188;2023-12-04T08:55:39;181.73;;;169.57;;
9208;SDS011;4639;48.862;9.188;2023-12-04T08:58:05;166.03;;;155.00;;
9208;SDS011;4639;48.862;9.188;2023-12-04T09:00:31;166.63;;;155.17;;
9208;SDS011;4639;48.862;9.188;2023-12-04T09:02:57;218.47;;;203.50;;
9208;SDS011;4639;48.862;9.188;2023-12-04T09:05:23;197.93;;;184.17;;
9208;SDS011;4639;48.862;9.188;2023-12-04T09:07:48;195.97;;;182.50;;
9208;SDS011;4639;48.862;9.188;2023-12-04T09:10:14;180.97;;;168.50;;
9208;SDS011;4639;48.862;9.188;2023-12-04T09:12:40;229.17;;;213.83;;
9208;SDS011;4639;48.862;9.188;2023-12-04T09:15:06;187.60;;;174.80;;
9208;SDS011;4639;48.862;9.188;2023-12-04T09:17:32;217.67;;;202.60;;
9208;SDS011;4639;48.862;9.188;2023-12-04T09:19:58;209.53;;;194.83;;
9208;SDS011;4639;48.862;9.188;2023-12-04T09:22:23;238.07;;;221.73;;
9208;SDS011;4639;48.862;9.188;2023-12-04T09:24:49;240.17;;;223.83;;
9208;SDS011;4639;48.862;9.188;2023-12-04T09:27:15;178.47;;;165.90;;
9208;SDS011;4639;48.862;9.188;2023-12-04T09:29:42;208.87;;;194.83;;
9208;SDS011;4639;48.862;9.188;2023-12-04T09:32:08;271.43;;;252.77;;
9208;SDS011;4639;48.862;9.188;2023-12-04T09:34:34;211.53;;;197.40;;
9208;SDS011;4639;48.862;9.188;2023-12-04T09:37:00;186.67;;;173.63;;
9208;SDS011;4639;48.862;9.188;2023-12-04T09:39:26;260.17;;;242.30;;
9208;SDS011;4639;48.862;9.188;2023-12-04T09:41:52;219.40;;;204.57;;
9208;SDS011;4639;48.862;9.188;2023-12-04T09:44:19;182.03;;;169.87;;
9208;SDS011;4639;48.862;9.188;2023-12-04T09:46:47;233.87;;;217.80;;
9208;SDS011;4639;48.862;9.188;2023-12-04T09:49:13;205.20;;;190.77;;
9208;SDS011;4639;48.862;9.188;2023-12-04T09:51:39;189.63;;;177.07;;
9208;SDS011;4639;48.862;9.188;2023-12-04T09:54:04;177.40;;;165.67;;
9208;SDS011;4639;48.862;9.188;2023-12-04T09:56:32;163.57;;;152.43;;
9208;SDS011;4639;48.862;9.188;2023-12-04T09:58:59;243.00;;;225.57;;
9208;SDS011;4639;48.862;9.188;2023-12-04T10:01:28;236.27;;;219.23;;
9208;SDS011;4639;48.862;9.188;2023-12-04T10:03:55;257.43;;;239.63;;
9208;SDS011;4639;48.862;9.188;2023-12-04T10:06:23;214.57;;;199.60;;
9208;SDS011;4639;48.862;9.188;2023-12-04T10:08:52;197.67;;;184.57;;
9208;SDS011;4639;48.862;9.188;2023-12-04T10:11:18;267.13;;;248.60;;
9208;SDS011;4639;48.862;9.188;2023-12-04T10:13:44;209.20;;;195.23;;
9208;SDS011;4639;48.862;9.188;2023-12-04T10:16:09;206.43;;;192.33;;
9208;SDS011;4639;48.862;9.188;2023-12-04T10:18:35;192.33;;;179.13;;
9208;SDS011;4639;48.862;9.188;2023-12-04T10:21:01;189.60;;;176.87;;
9208;SDS011;4639;48.862;9.188;2023-12-04T10:26:19;245.77;;;228.77;;
9208;SDS011;4639;48.862;9.188;2023-12-04T10:29:03;184.03;;;171.33;;
9208;SDS011;4639;48.862;9.188;2023-12-04T10:31:33;170.57;;;159.27;;
9208;SDS011;4639;48.862;9.188;2023-12-04T10:33:59;180.63;;;168.47;;
9208;SDS011;4639;48.862;9.188;2023-12-04T10:36:26;181.93;;;168.93;;
9208;SDS011;4639;48.862;9.188;2023-12-04T10:38:58;197.80;;;184.27;;
9208;SDS011;4639;48.862;9.188;2023-12-04T10:41:29;263.17;;;245.03;;
9208;SDS011;4639;48.862;9.188;2023-12-04T10:43:56;206.70;;;192.17;;
9208;SDS011;4639;48.862;9.188;2023-12-04T10:46:22;175.67;;;163.47;;
9208;SDS011;4639;48.862;9.188;2023-12-04T10:48:49;180.83;;;168.83;;
9208;SDS011;4639;48.862;9.188;2023-12-04T10:51:15;191.40;;;178.43;;
9208;SDS011;4639;48.862;9.188;2023-12-04T10:53:42;169.57;;;158.20;;
9208;SDS011;4639;48.862;9.188;2023-12-04T10:56:10;175.90;;;164.20;;
9208;SDS011;4639;48.862;9.188;2023-12-04T10:58:40;179.60;;;167.90;;
9208;SDS011;4639;48.862;9.188;2023-12-04T11:01:06;193.87;;;181.17;;
9208;SDS011;4639;48.862;9.188;2023-12-04T11:03:49;202.27;;;189.10;;
9208;SDS011;4639;48.862;9.188;2023-12-04T11:06:19;178.43;;;166.43;;
9208;SDS011;4639;48.862;9.188;2023-12-04T11:08:47;185.60;;;173.37;;
9208;SDS011;4639;48.862;9.188;2023-12-04T11:11:18;173.93;;;162.30;;
9208;SDS011;4639;48.862;9.188;2023-12-04T11:13:51;174.30;;;162.30;;
9208;SDS011;4639;48.862;9.188;2023-12-04T11:18:55;197.07;;;184.03;;
9208;SDS011;4639;48.862;9.188;2023-12-04T11:21:26;171.23;;;159.47;;
9208;SDS011;4639;48.862;9.188;2023-12-04T11:23:54;151.10;;;141.27;;
9208;SDS011;4639;48.862;9.188;2023-12-04T11:26:23;212.07;;;198.20;;
9208;SDS011;4639;48.862;9.188;2023-12-04T11:28:50;374.00;;;347.27;;
9208;SDS011;4639;48.862;9.188;2023-12-04T11:31:17;223.40;;;208.50;;
9208;SDS011;4639;48.862;9.188;2023-12-04T11:33:43;195.00;;;182.27;;
9208;SDS011;4639;48.862;9.188;2023-12-04T11:36:09;261.83;;;244.57;;
9208;SDS011;4639;48.862;9.188;2023-12-04T11:38:38;192.73;;;179.93;;
9208;SDS011;4639;48.862;9.188;2023-12-04T11:41:15;168.33;;;157.30;;
9208;SDS011;4639;48.862;9.188;2023-12-04T11:43:45;187.07;;;174.57;;
9208;SDS011;4639;48.862;9.188;2023-12-04T11:46:12;201.23;;;187.97;;
9208;SDS011;4639;48.862;9.188;2023-12-04T11:48:45;184.60;;;172.10;;
9208;SDS011;4639;48.862;9.188;2023-12-04T11:51:12;177.87;;;166.00;;
9208;SDS011;4639;48.862;9.188;2023-12-04T11:54:00;175.40;;;163.93;;
9208;SDS011;4639;48.862;9.188;2023-12-04T11:56:29;206.13;;;192.33;;
9208;SDS011;4639;48.862;9.188;2023-12-04T11:59:02;233.13;;;217.77;;
9208;SDS011;4639;48.862;9.188;2023-12-04T12:01:37;175.27;;;163.37;;
9208;SDS011;4639;48.862;9.188;2023-12-04T12:04:06;187.80;;;174.83;;
9208;SDS011;4639;48.862;9.188;2023-12-04T12:06:32;209.17;;;194.93;;
9208;SDS011;4639;48.862;9.188;2023-12-04T12:08:57;243.37;;;226.23;;
9208;SDS011;4639;48.862;9.188;2023-12-04T12:11:24;191.67;;;178.83;;
9208;SDS011;4639;48.862;9.188;2023-12-04T12:13:52;150.63;;;140.13;;
9208;SDS011;4639;48.862;9.188;2023-12-04T12:16:18;175.70;;;163.63;;
9208;SDS011;4639;48.862;9.188;2023-12-04T12:18:44;171.00;;;159.63;;
9208;SDS011;4639;48.862;9.188;2023-12-04T12:21:09;167.90;;;156.53;;
9208;SDS011;4639;48.862;9.188;2023-12-04T12:23:35;155.63;;;144.93;;
9208;SDS011;4639;48.862;9.188;2023-12-04T12:26:01;172.27;;;160.63;;
9208;SDS011;4639;48.862;9.188;2023-12-04T12:28:28;154.10;;;143.70;;
9208;SDS011;4639;48.862;9.188;2023-12-04T12:30:54;162.00;;;151.40;;
9208;SDS011;4639;48.862;9.188;2023-12-04T12:33:20;166.87;;;155.23;;
9208;SDS011;4639;48.862;9.188;2023-12-04T12:35:48;156.77;;;146.27;;
9208;SDS011;4639;48.862;9.188;2023-12-04T12:38:15;148.73;;;138.43;;
9208;SDS011;4639;48.862;9.188;2023-12-04T12:40:41;158.60;;;147.60;;
9208;SDS011;4639;48.862;9.188;2023-12-04T12:43:08;144.17;;;134.30;;
9208;SDS011;4639;48.862;9.188;2023-12-04T12:45:40;149.33;;;138.60;;
9208;SDS011;4639;48.862;9.188;2023-12-04T12:48:14;147.50;;;137.80;;
9208;SDS011;4639;48.862;9.188;2023-12-04T12:50:46;154.60;;;144.17;;
9208;SDS011;4639;48.862;9.188;2023-12-04T12:53:15;157.60;;;147.03;;
9208;SDS011;4639;48.862;9.188;2023-12-04T12:55:43;148.07;;;138.00;;
9208;SDS011;4639;48.862;9.188;2023-12-04T12:58:09;163.00;;;152.23;;
9208;SDS011;4639;48.862;9.188;2023-12-04T13:00:35;170.93;;;159.53;;
9208;SDS011;4639;48.862;9.188;2023-12-04T13:03:01;163.33;;;152.37;;
9208;SDS011;4639;48.862;9.188;2023-12-04T13:05:27;191.30;;;178.13;;
9208;SDS011;4639;48.862;9.188;2023-12-04T13:07:52;174.40;;;162.90;;
9208;SDS011;4639;48.862;9.188;2023-12-04T13:10:19;206.80;;;193.03;;
9208;SDS011;4639;48.862;9.188;2023-12-04T13:12:45;218.83;;;204.40;;
9208;SDS011;4639;48.862;9.188;2023-12-04T13:15:10;192.90;;;180.30;;
9208;SDS011;4639;48.862;9.188;2023-12-04T13:17:36;191.47;;;178.67;;
9208;SDS011;4639;48.862;9.188;2023-12-04T13:20:01;187.27;;;174.63;;
9208;SDS011;4639;48.862;9.188;2023-12-04T13:22:29;190.13;;;177.57;;
9208;SDS011;4639;48.862;9.188;2023-12-04T13:24:57;320.33;;;297.60;;
9208;SDS011;4639;48.862;9.188;2023-12-04T13:27:23;249.93;;;233.00;;
9208;SDS011;4639;48.862;9.188;2023-12-04T13:29:48;246.90;;;230.73;;
9208;SDS011;4639;48.862;9.188;2023-12-04T13:32:15;198.17;;;185.10;;
9208;SDS011;4639;48.862;9.188;2023-12-04T13:34:41;203.67;;;190.23;;
9208;SDS011;4639;48.862;9.188;2023-12-04T13:37:07;243.13;;;226.87;;
9208;SDS011;4639;48.862;9.188;2023-12-04T13:39:33;213.83;;;199.60;;
9208;SDS011;4639;48.862;9.188;2023-12-04T13:42:12;210.40;;;196.17;;
9208;SDS011;4639;48.862;9.188;2023-12-04T13:44:57;229.37;;;214.47;;
9208;SDS011;4639;48.862;9.188;2023-12-04T13:47:24;240.53;;;224.63;;
9208;SDS011;4639;48.862;9.188;2023-12-04T13:49:50;255.43;;;238.30;;
9208;SDS011;4639;48.862;9.188;2023-12-04T13:52:15;260.20;;;242.90;;
9208;SDS011;4639;48.862;9.188;2023-12-04T13:54:45;331.47;;;307.77;;
9208;SDS011;4639;48.862;9.188;2023-12-04T13:57:12;181.97;;;169.83;;
9208;SDS011;4639;48.862;9.188;2023-12-04T13:59:53;189.27;;;177.00;;
9208;SDS011;4639;48.862;9.188;2023-12-04T14:02:21;199.60;;;186.23;;
9208;SDS011;4639;48.862;9.188;2023-12-04T14:04:46;203.43;;;190.07;;
9208;SDS011;4639;48.862;9.188;2023-12-04T14:07:13;178.67;;;166.87;;
9208;SDS011;4639;48.862;9.188;2023-12-04T14:09:39;216.77;;;202.00;;
9208;SDS011;4639;48.862;9.188;2023-12-04T14:12:05;214.33;;;200.00;;
9208;SDS011;4639;48.862;9.188;2023-12-04T14:14:31;303.80;;;281.83;;
9208;SDS011;4639;48.862;9.188;2023-12-04T14:16:58;212.87;;;198.67;;
9208;SDS011;4639;48.862;9.188;2023-12-04T14:19:24;252.37;;;235.30;;
9208;SDS011;4639;48.862;9.188;2023-12-04T14:21:49;440.33;;;399.33;;
9208;SDS011;4639;48.862;9.188;2023-12-04T14:24:15;279.97;;;260.17;;